Time;durP1;ratioP1;P1;durP2;ratioP2;P2;SDS_P1;SDS_P2;PMS_P1;PMS_P2;Temp;Humidity;BMP_temperature;BMP_pressure;BME280_temperature;BME280_humidity;BME280_pressure;Samples;Min_cycle;Max_cycle;Signal;HPM_P1;HPM_P2
2024/02/14 00:00:41;;;;;;;8.00;3.55;;;;;;;-8.86;67.97;100400.66;4969221;28;20048;-46
2024/02/14 00:03:07;;;;;;;11.10;2.95;;;;;;;-8.69;67.42;100426.78;4997724;28;20046;-48
2024/02/14 00:05:34;;;;;;;10.48;3.90;;;;;;;-8.67;68.10;100428.56;4968792;28;20743;-48
2024/02/14 00:08:00;;;;;;;9.15;3.83;;;;;;;-8.69;67.84;100419.22;4986366;28;20050;-47
2024/02/14 00:10:26;;;;;;;6.70;2.90;;;;;;;-8.65;68.03;100427.03;4976228;28;20038;-48
2024/02/14 00:12:52;;;;;;;13.52;2.85;;;;;;;-8.63;67.25;100429.59;5004403;28;20034;-50
2024/02/14 00:15:18;;;;;;;7.57;2.53;;;;;;;-8.70;67.10;100420.88;5001636;28;20065;-50
2024/02/14 00:17:44;;;;;;;6.97;3.25;;;;;;;-8.67;67.01;100437.78;4986867;28;20050;-49
2024/02/14 00:20:12;;;;;;;10.27;4.53;;;;;;;-8.66;67.88;100431.97;5002262;28;20050;-49
2024/02/14 00:22:52;;;;;;;9.02;3.35;;;;;;;-8.67;67.77;100432.75;5003681;28;20046;-50
2024/02/14 00:25:17;;;;;;;6.93;2.97;;;;;;;-8.72;67.46;100427.47;5001537;28;20042;-47
2024/02/14 00:27:54;;;;;;;10.18;3.42;;;;;;;-8.75;67.55;100431.47;4989235;28;20048;-51
2024/02/14 00:30:22;;;;;;;8.15;3.60;;;;;;;-8.90;66.89;100413.91;4987063;28;20045;-47
2024/02/14 00:33:08;;;;;;;8.85;3.20;;;;;;;-8.99;66.77;100400.78;5003189;28;20061;-51
2024/02/14 00:35:35;;;;;;;6.78;2.85;;;;;;;-8.87;66.66;100433.31;4988416;28;20061;-48
2024/02/14 00:38:01;;;;;;;6.65;2.75;;;;;;;-8.86;67.05;100437.59;5001180;28;20566;-49
2024/02/14 00:40:27;;;;;;;11.35;4.90;;;;;;;-8.97;66.94;100409.28;4981962;28;20457;-50
2024/02/14 00:42:53;;;;;;;9.95;4.25;;;;;;;-8.83;66.58;100432.69;5004199;28;20204;-50
2024/02/14 00:45:19;;;;;;;6.68;2.13;;;;;;;-8.89;67.30;100435.75;4984224;28;20727;-48
2024/02/14 00:47:45;;;;;;;8.88;3.60;;;;;;;-9.05;66.98;100411.38;4994428;28;20192;-47
2024/02/14 00:50:12;;;;;;;10.10;3.65;;;;;;;-8.86;66.88;100437.59;4957873;28;1375010;-48
2024/02/14 00:52:39;;;;;;;6.85;3.22;;;;;;;-8.88;66.96;100429.06;5005344;28;20041;-47
2024/02/14 00:55:05;;;;;;;9.25;3.83;;;;;;;-8.91;66.40;100433.94;5004097;28;20045;-51
2024/02/14 00:57:33;;;;;;;12.50;3.78;;;;;;;-8.92;67.12;100440.63;4988396;28;20034;-47
2024/02/14 00:59:59;;;;;;;8.98;3.13;;;;;;;-8.93;66.93;100443.94;4981017;28;20525;-45
2024/02/14 01:02:29;;;;;;;12.52;3.97;;;;;;;-8.90;66.60;100440.72;4986506;28;20042;-47
2024/02/14 01:04:56;;;;;;;9.70;3.45;;;;;;;-8.89;66.52;100444.97;4969794;28;20568;-48
2024/02/14 01:07:22;;;;;;;8.10;3.10;;;;;;;-8.91;66.54;100449.06;4996154;28;20581;-47
2024/02/14 01:09:48;;;;;;;11.38;3.45;;;;;;;-8.88;66.67;100446.69;4984585;28;20168;-50
2024/02/14 01:12:14;;;;;;;9.63;3.78;;;;;;;-8.90;66.81;100450.81;4986168;28;20042;-48
2024/02/14 01:14:41;;;;;;;9.07;3.65;;;;;;;-9.03;66.57;100429.09;4989335;28;20045;-47
2024/02/14 01:17:08;;;;;;;7.22;3.15;;;;;;;-8.88;66.56;100444.19;5005523;28;20125;-48
2024/02/14 01:19:35;;;;;;;12.23;3.55;;;;;;;-8.90;66.59;100449.16;5003106;28;20074;-49
2024/02/14 01:22:02;;;;;;;7.95;3.20;;;;;;;-8.92;66.01;100444.81;4971919;28;20049;-49
2024/02/14 01:24:30;;;;;;;7.93;3.60;;;;;;;-9.10;66.33;100411.91;4974941;28;20046;-48
2024/02/14 01:26:56;;;;;;;10.45;3.95;;;;;;;-8.93;66.44;100443.06;4993334;28;20077;-47
2024/02/14 01:29:23;;;;;;;9.55;3.55;;;;;;;-8.92;65.87;100452.38;4968676;28;20101;-46
2024/02/14 01:31:50;;;;;;;9.52;3.35;;;;;;;-9.07;66.04;100449.88;4968362;28;20461;-47
2024/02/14 01:34:16;;;;;;;12.32;4.18;;;;;;;-9.09;66.06;100456.47;4985885;28;20046;-49
2024/02/14 01:36:42;;;;;;;9.43;4.28;;;;;;;-9.09;65.99;100458.97;5002123;28;20048;-48
2024/02/14 01:39:11;;;;;;;8.07;3.38;;;;;;;-9.11;65.74;100466.47;5007583;28;20049;-48
2024/02/14 01:41:38;;;;;;;7.00;3.28;;;;;;;-9.11;66.82;100460.56;4961645;28;20052;-53
2024/02/14 01:44:04;;;;;;;9.93;3.20;;;;;;;-9.15;66.78;100468.72;4972179;28;20042;-46
2024/02/14 01:46:31;;;;;;;10.23;2.88;;;;;;;-9.19;66.40;100472.72;4988307;28;20066;-49
2024/02/14 01:49:02;;;;;;;9.32;3.78;;;;;;;-9.19;66.11;100476.88;4956643;28;20062;-51
2024/02/14 01:51:30;;;;;;;12.13;4.57;;;;;;;-9.26;66.64;100479.84;4987619;28;20141;-48
2024/02/14 01:53:56;;;;;;;11.18;3.70;;;;;;;-9.29;66.55;100478.00;4987818;28;20542;-46
2024/02/14 01:56:22;;;;;;;11.90;3.53;;;;;;;-9.31;66.49;100477.03;4997679;28;20046;-51
2024/02/14 01:58:48;;;;;;;6.28;2.95;;;;;;;-9.35;66.54;100480.19;4999022;28;20803;-48
2024/02/14 02:01:15;;;;;;;9.75;4.10;;;;;;;-9.34;66.74;100488.59;5008310;28;20056;-46
2024/02/14 02:03:41;;;;;;;10.02;4.45;;;;;;;-9.35;66.04;100490.25;5007837;28;20044;-52
2024/02/14 02:06:09;;;;;;;13.93;3.58;;;;;;;-9.36;65.69;100493.53;5008368;28;20470;-47
2024/02/14 02:08:35;;;;;;;8.40;3.60;;;;;;;-9.58;65.69;100453.72;5007217;28;20056;-50
2024/02/14 02:11:01;;;;;;;7.72;3.67;;;;;;;-9.36;66.02;100495.19;5008600;28;20536;-48
2024/02/14 02:13:48;;;;;;;8.50;2.90;;;;;;;-9.34;65.95;100488.59;5008404;28;20042;-48
2024/02/14 02:16:33;;;;;;;8.38;3.30;;;;;;;-9.38;65.87;100494.25;4996790;28;20053;-46
2024/02/14 02:19:28;;;;;;;9.35;3.67;;;;;;;-9.38;65.80;100495.13;5003759;28;20435;-50
2024/02/14 02:22:14;;;;;;;5.88;3.08;;;;;;;-9.41;65.45;100499.97;5008759;28;20053;-48
2024/02/14 02:25:00;;;;;;;10.40;4.05;;;;;;;-9.45;66.06;100501.44;5008532;28;20045;-51
2024/02/14 02:27:26;;;;;;;12.77;3.28;;;;;;;-9.49;65.92;100499.53;4990642;28;20524;-49
2024/02/14 02:30:13;;;;;;;8.15;3.35;;;;;;;-9.49;65.46;100497.03;5008235;28;20123;-49
2024/02/14 02:32:42;;;;;;;15.00;3.67;;;;;;;-9.50;66.18;100487.72;4991246;28;20080;-50
2024/02/14 02:35:09;;;;;;;7.63;3.45;;;;;;;-9.51;65.51;100497.69;4987490;28;20465;-49
2024/02/14 02:37:55;;;;;;;15.02;2.78;;;;;;;-9.54;65.73;100487.47;5004181;28;20145;-47
2024/02/14 02:40:41;;;;;;;11.73;2.97;;;;;;;-9.63;66.14;100502.88;4993347;28;20046;-47
2024/02/14 02:43:27;;;;;;;7.25;3.40;;;;;;;-9.64;65.60;100511.22;5008112;28;20474;-48
2024/02/14 02:46:13;;;;;;;9.50;4.30;;;;;;;-9.67;65.46;100512.69;5006398;28;20049;-46
2024/02/14 02:48:58;;;;;;;7.18;2.85;;;;;;;-9.71;66.05;100508.25;4997291;28;20069;-46
2024/02/14 02:51:27;;;;;;;10.50;3.58;;;;;;;-9.71;66.33;100508.25;4988282;28;20042;-54
2024/02/14 02:54:13;;;;;;;8.57;3.55;;;;;;;-9.70;66.67;100515.03;4960211;28;20046;-47
2024/02/14 02:56:59;;;;;;;10.95;3.63;;;;;;;-9.71;66.06;100524.22;4994739;28;20050;-48
2024/02/14 02:59:25;;;;;;;8.32;2.88;;;;;;;-9.75;65.56;100517.28;4976546;28;20041;-51
2024/02/14 03:01:51;;;;;;;5.43;2.38;;;;;;;-9.76;65.97;100523.06;4957452;28;20089;-45
2024/02/14 03:04:38;;;;;;;7.38;3.30;;;;;;;-9.79;66.23;100527.06;4987120;28;20042;-49
2024/02/14 03:07:24;;;;;;;5.50;2.80;;;;;;;-9.80;66.60;100518.66;5005999;28;20073;-47
2024/02/14 03:10:09;;;;;;;7.43;2.70;;;;;;;-9.84;66.28;100523.41;4992315;28;20037;-47
2024/02/14 03:12:55;;;;;;;8.02;3.75;;;;;;;-9.91;66.13;100524.69;5005078;28;20533;-51
2024/02/14 03:15:43;;;;;;;9.18;3.45;;;;;;;-10.19;65.76;100478.56;4978716;28;20041;-49
2024/02/14 03:18:09;;;;;;;10.73;2.85;;;;;;;-10.12;66.24;100490.72;4970039;28;20046;-52
2024/02/14 03:20:36;;;;;;;10.60;2.72;;;;;;;-9.99;66.00;100541.81;4989940;28;20041;-47
2024/02/14 03:23:03;;;;;;;8.52;3.53;;;;;;;-9.98;66.19;100528.47;5005010;28;20064;-48
2024/02/14 03:25:30;;;;;;;6.88;2.63;;;;;;;-9.97;65.93;100537.75;4971871;28;20064;-45
2024/02/14 03:28:08;;;;;;;8.77;3.42;;;;;;;-10.17;66.11;100505.56;5005743;28;20069;-50
2024/02/14 03:30:36;;;;;;;6.35;2.95;;;;;;;-10.00;66.44;100535.06;5005850;28;20037;-48
2024/02/14 03:33:03;;;;;;;4.95;2.67;;;;;;;-10.03;66.65;100542.41;5006023;28;20038;-50
2024/02/14 03:35:29;;;;;;;7.60;2.95;;;;;;;-10.08;65.88;100543.78;4989193;28;20061;-51
2024/02/14 03:38:01;;;;;;;8.20;3.10;;;;;;;-10.33;65.85;100503.75;5006109;28;20050;-51
2024/02/14 03:40:30;;;;;;;16.92;3.78;;;;;;;-10.30;66.65;100501.41;4993780;28;20283;-49
2024/02/14 03:42:57;;;;;;;5.20;2.95;;;;;;;-10.07;66.67;100547.16;5006219;28;20037;-47
2024/02/14 03:45:23;;;;;;;7.00;2.33;;;;;;;-10.11;66.79;100550.28;5005650;28;20116;-50
2024/02/14 03:47:50;;;;;;;10.48;3.80;;;;;;;-10.12;65.76;100546.03;5006810;28;20037;-49
2024/02/14 03:50:16;;;;;;;14.30;2.75;;;;;;;-10.14;65.90;100543.41;4989320;28;20046;-47
2024/02/14 03:52:43;;;;;;;13.63;3.60;;;;;;;-10.17;66.56;100545.78;5006331;28;20360;-47
2024/02/14 03:55:13;;;;;;;7.22;3.20;;;;;;;-10.22;66.46;100538.72;4973230;28;20037;-50
2024/02/14 03:57:45;;;;;;;9.38;3.10;;;;;;;-10.14;65.93;100553.47;4990522;28;20042;-46
2024/02/14 04:00:11;;;;;;;6.30;3.15;;;;;;;-10.18;66.54;100548.19;5006390;28;20077;-48
2024/02/14 04:02:38;;;;;;;6.95;2.72;;;;;;;-10.26;66.36;100549.38;5006033;28;20045;-47
2024/02/14 04:05:06;;;;;;;10.60;3.10;;;;;;;-10.40;66.29;100519.22;5005290;28;20041;-47
2024/02/14 04:07:34;;;;;;;4.95;2.70;;;;;;;-10.23;66.00;100557.09;5005355;28;20651;-46
2024/02/14 04:10:00;;;;;;;5.50;3.28;;;;;;;-10.23;65.74;100557.09;5006837;28;20129;-51
2024/02/14 04:12:28;;;;;;;13.65;4.47;;;;;;;-10.46;65.90;100516.31;4988859;28;20735;-51
2024/02/14 04:14:57;;;;;;;7.95;3.45;;;;;;;-10.25;65.67;100551.97;4955641;28;20038;-45
2024/02/14 04:17:24;;;;;;;7.45;3.38;;;;;;;-10.20;65.74;100557.31;4998516;28;21086;-45
2024/02/14 04:19:50;;;;;;;11.35;3.30;;;;;;;-10.25;66.29;100571.19;4988205;28;20042;-51
2024/02/14 04:22:16;;;;;;;15.77;4.10;;;;;;;-10.31;66.59;100565.00;4971923;28;20611;-48
2024/02/14 04:24:42;;;;;;;12.63;3.47;;;;;;;-10.34;66.20;100562.31;4983240;28;20048;-46
2024/02/14 04:27:08;;;;;;;6.05;2.72;;;;;;;-10.54;66.13;100524.19;4991430;28;20046;-46
2024/02/14 04:29:35;;;;;;;10.82;4.50;;;;;;;-10.36;65.67;100575.59;4998113;28;20041;-48
2024/02/14 04:32:01;;;;;;;7.32;2.88;;;;;;;-10.60;65.87;100521.28;4997855;28;20476;-47
2024/02/14 04:34:27;;;;;;;12.65;4.20;;;;;;;-10.37;66.20;100577.22;4997510;28;20053;-46
2024/02/14 04:36:53;;;;;;;10.45;4.22;;;;;;;-10.80;66.10;100499.94;4961071;28;20038;-47
2024/02/14 04:39:19;;;;;;;12.10;4.55;;;;;;;-10.36;66.75;100583.13;4994003;28;20546;-47
2024/02/14 04:41:45;;;;;;;8.63;3.75;;;;;;;-10.72;65.90;100526.38;4998302;28;20482;-47
2024/02/14 04:44:11;;;;;;;10.63;4.05;;;;;;;-10.37;65.91;100583.91;4992521;28;20041;-52
2024/02/14 04:46:43;;;;;;;11.23;4.55;;;;;;;-10.39;65.88;100585.44;4998929;28;20491;-47
2024/02/14 04:49:10;;;;;;;8.63;3.45;;;;;;;-10.41;65.46;100584.44;5007582;28;20069;-50
2024/02/14 04:51:37;;;;;;;11.95;4.40;;;;;;;-10.39;65.67;100595.47;4990628;28;20045;-47
2024/02/14 04:54:05;;;;;;;9.85;3.60;;;;;;;-10.41;65.62;100590.34;4976467;28;20057;-52
2024/02/14 04:56:32;;;;;;;8.48;3.08;;;;;;;-10.46;65.70;100593.34;4993101;28;20430;-49
2024/02/14 04:58:58;;;;;;;13.25;3.55;;;;;;;-10.42;65.40;100602.84;4978121;28;20073;-48
2024/02/14 05:01:25;;;;;;;8.52;3.50;;;;;;;-10.48;66.33;100605.84;4976881;28;20141;-50
2024/02/14 05:03:51;;;;;;;6.25;3.13;;;;;;;-10.52;65.63;100610.56;4987841;28;20042;-48
2024/02/14 05:06:16;;;;;;;12.77;4.25;;;;;;;-10.59;66.11;100605.91;4994344;28;20045;-49
2024/02/14 05:08:43;;;;;;;7.78;3.40;;;;;;;-10.81;65.97;100581.06;4996560;28;20774;-52
2024/02/14 05:11:09;;;;;;;8.50;3.15;;;;;;;-10.56;65.52;100618.66;4968678;28;20108;-51
2024/02/14 05:13:37;;;;;;;6.70;3.35;;;;;;;-10.55;65.74;100627.94;4971592;28;20077;-43
2024/02/14 05:16:05;;;;;;;6.07;3.60;;;;;;;-10.81;66.13;100579.44;4992240;28;20046;-48
2024/02/14 05:18:31;;;;;;;12.18;3.10;;;;;;;-10.73;65.56;100588.31;5005705;28;20049;-50
2024/02/14 05:20:58;;;;;;;8.23;3.40;;;;;;;-10.72;65.60;100582.53;5008173;28;20049;-48
2024/02/14 05:23:24;;;;;;;12.30;3.38;;;;;;;-10.50;65.89;100611.53;4991507;28;20050;-46
2024/02/14 05:25:51;;;;;;;7.80;3.35;;;;;;;-10.42;65.65;100630.47;5002770;28;20041;-53
2024/02/14 05:28:18;;;;;;;9.57;3.67;;;;;;;-10.39;66.11;100611.44;5004784;28;20050;-50
2024/02/14 05:30:45;;;;;;;9.13;3.08;;;;;;;-10.36;65.60;100626.69;4995579;28;20239;-55
2024/02/14 05:33:31;;;;;;;9.57;3.83;;;;;;;-10.26;64.98;100625.66;4999903;28;20050;-51
2024/02/14 05:35:57;;;;;;;7.65;3.13;;;;;;;-10.20;65.04;100622.66;4977885;28;20046;-50
2024/02/14 05:38:23;;;;;;;11.25;4.18;;;;;;;-10.14;65.46;100626.38;4997087;28;20060;-49
2024/02/14 05:40:49;;;;;;;15.43;4.15;;;;;;;-10.16;64.39;100627.09;4987538;28;20104;-49
2024/02/14 05:43:17;;;;;;;8.73;3.33;;;;;;;-10.09;64.74;100634.19;4994758;28;20525;-48
2024/02/14 05:45:43;;;;;;;10.80;3.92;;;;;;;-10.03;63.89;100637.09;4999834;28;20700;-55
2024/02/14 05:48:09;;;;;;;9.23;3.53;;;;;;;-9.96;64.76;100634.19;4994694;28;20042;-49
2024/02/14 05:50:36;;;;;;;6.60;3.45;;;;;;;-9.91;64.28;100637.84;4990157;28;20041;-53
2024/02/14 05:53:03;;;;;;;7.90;3.60;;;;;;;-9.81;63.74;100645.19;5008250;28;20052;-50
2024/02/14 05:55:29;;;;;;;8.55;3.95;;;;;;;-9.65;64.27;100645.34;4989090;28;20151;-46
2024/02/14 05:58:02;;;;;;;7.95;3.92;;;;;;;-9.42;64.03;100644.25;4991850;28;20038;-46
2024/02/14 06:00:29;;;;;;;11.20;3.20;;;;;;;-9.26;63.53;100646.03;5006629;28;20056;-49
2024/02/14 06:02:55;;;;;;;11.45;3.70;;;;;;;-9.31;62.87;100582.78;5007878;28;20527;-52
2024/02/14 06:05:21;;;;;;;9.43;3.75;;;;;;;-8.56;62.34;100650.97;5006974;28;20042;-49
2024/02/14 06:07:48;;;;;;;9.05;3.92;;;;;;;-8.24;61.43;100652.72;5005592;28;20133;-48
2024/02/14 06:10:13;;;;;;;7.93;3.30;;;;;;;-8.22;60.46;100626.84;4969326;28;20042;-51
2024/02/14 06:12:43;;;;;;;13.52;4.72;;;;;;;-8.02;60.43;100654.78;4989120;28;20511;-47
2024/02/14 06:15:09;;;;;;;8.30;3.95;;;;;;;-7.87;59.82;100664.06;5006470;28;20053;-47
2024/02/14 06:17:39;;;;;;;9.68;4.13;;;;;;;-7.64;59.34;100655.19;4994699;28;20835;-51
2024/02/14 06:20:07;;;;;;;10.93;3.92;;;;;;;-7.59;59.02;100610.00;4995093;28;20058;-47
2024/02/14 06:22:35;;;;;;;;;;;;;;;-6.91;58.19;100651.44;4958178;28;20045;-49
2024/02/14 06:25:04;;;;;;;8.95;3.42;;;;;;;-6.55;57.13;100657.47;5000076;28;20705;-48
2024/02/14 06:27:46;;;;;;;8.57;3.53;;;;;;;-5.97;56.78;100651.00;4998456;28;20046;-50
2024/02/14 06:30:13;;;;;;;10.18;3.92;;;;;;;-5.53;55.82;100644.50;4997187;28;20064;-51
2024/02/14 06:32:39;;;;;;;10.82;3.22;;;;;;;-5.18;54.44;100649.50;4996303;28;20052;-49
2024/02/14 06:35:05;;;;;;;9.82;3.60;;;;;;;-5.10;54.46;100660.81;4991410;28;20132;-49
2024/02/14 06:37:32;;;;;;;10.85;3.80;;;;;;;-5.30;53.78;100618.53;4988784;28;20193;-54
2024/02/14 06:39:58;;;;;;;6.13;3.22;;;;;;;-4.92;53.33;100623.56;4987177;28;20125;-49
2024/02/14 06:42:26;;;;;;;5.53;2.88;;;;;;;-4.49;52.62;100651.59;4976015;28;20401;-47
2024/02/14 06:44:52;;;;;;;7.57;3.58;;;;;;;-4.33;51.57;100663.25;4994227;28;20081;-48
2024/02/14 06:47:18;;;;;;;8.98;3.50;;;;;;;-4.14;51.16;100665.72;4992233;28;20069;-51
2024/02/14 06:49:44;;;;;;;9.60;3.58;;;;;;;-4.17;50.78;100624.09;4997991;28;20392;-49
2024/02/14 06:52:10;;;;;;;10.80;4.30;;;;;;;-3.73;50.22;100657.19;4978109;28;20052;-52
2024/02/14 06:54:36;;;;;;;12.70;3.45;;;;;;;-3.72;49.96;100640.28;4989911;28;20128;-52
2024/02/14 06:57:03;;;;;;;14.93;4.45;;;;;;;-3.32;49.33;100652.78;4970886;28;20125;-49
2024/02/14 06:59:31;;;;;;;7.80;3.38;;;;;;;-3.19;48.87;100650.72;5006086;28;20049;-41
2024/02/14 07:01:57;;;;;;;5.43;3.70;;;;;;;-2.97;48.77;100651.47;4999778;28;20465;-42
2024/02/14 07:04:25;;;;;;;9.95;3.78;;;;;;;-2.77;48.00;100656.44;4998651;28;20033;-41
2024/02/14 07:06:53;;;;;;;11.48;4.20;;;;;;;-2.62;47.46;100668.84;4995506;28;20045;-43
2024/02/14 07:09:19;;;;;;;8.30;3.97;;;;;;;-3.02;47.07;100624.22;4990193;28;20034;-42
2024/02/14 07:11:48;;;;;;;12.35;4.25;;;;;;;-2.99;46.94;100661.63;4970174;28;20104;-43
2024/02/14 07:14:14;;;;;;;12.27;4.15;;;;;;;-2.76;47.07;100663.28;4988648;28;20870;-42
2024/02/14 07:16:40;;;;;;;12.63;4.70;;;;;;;-2.37;46.97;100661.22;4998263;28;20096;-42
2024/02/14 07:19:06;;;;;;;8.90;4.20;;;;;;;-2.01;46.07;100661.53;4998602;28;20092;-42
2024/02/14 07:21:33;;;;;;;9.15;3.85;;;;;;;-1.57;45.57;100647.59;4997031;28;20517;-42
2024/02/14 07:23:59;;;;;;;9.25;3.70;;;;;;;-1.25;44.94;100652.75;4995378;28;20048;-44
2024/02/14 07:26:25;;;;;;;10.10;3.90;;;;;;;-1.16;44.62;100655.59;4992311;28;20034;-42
2024/02/14 07:28:51;;;;;;;7.18;3.03;;;;;;;-0.97;43.94;100617.84;4995645;28;20072;-42
2024/02/14 07:31:19;;;;;;;7.28;4.20;;;;;;;-0.79;43.44;100621.72;4983750;28;20041;-43
2024/02/14 07:33:46;;;;;;;7.03;3.65;;;;;;;-0.68;43.24;100612.66;4997097;28;20045;-43
2024/02/14 07:36:12;;;;;;;12.10;4.18;;;;;;;0.11;42.81;100658.00;4995075;28;20058;-43
2024/02/14 07:38:38;;;;;;;12.63;4.45;;;;;;;-0.17;42.27;100631.81;4965268;28;20069;-42
2024/02/14 07:41:04;;;;;;;11.27;4.03;;;;;;;-0.40;42.18;100644.84;4996463;28;20140;-42
2024/02/14 07:43:40;;;;;;;11.55;4.32;;;;;;;-0.42;42.39;100668.66;4995641;28;20038;-43
2024/02/14 07:46:07;;;;;;;10.05;4.18;;;;;;;-0.19;42.08;100669.25;4994171;28;20045;-45
2024/02/14 07:48:33;;;;;;;10.95;4.35;;;;;;;-0.32;42.16;100668.91;4995867;28;20224;-43
2024/02/14 07:50:59;;;;;;;11.07;4.40;;;;;;;-0.54;42.25;100637.72;4997103;28;20133;-44
2024/02/14 07:53:26;;;;;;;17.15;4.15;;;;;;;-0.75;42.28;100643.94;4995934;28;20042;-43
2024/02/14 07:55:52;;;;;;;10.00;4.25;;;;;;;-0.73;42.13;100652.53;4952309;28;20553;-43
2024/02/14 07:58:18;;;;;;;9.18;4.35;;;;;;;-0.67;42.42;100658.63;4951923;28;20079;-42
2024/02/14 08:00:44;;;;;;;11.10;4.03;;;;;;;-0.68;42.29;100663.72;4980776;28;20042;-54
2024/02/14 08:03:11;;;;;;;10.45;3.90;;;;;;;-0.53;42.27;100665.00;4960176;28;20096;-49
2024/02/14 08:05:37;;;;;;;8.98;3.47;;;;;;;-0.21;42.11;100672.59;4997082;28;20046;-52
2024/02/14 08:08:03;;;;;;;16.17;5.07;;;;;;;-0.08;41.95;100647.38;4994103;28;20048;-49
2024/02/14 08:10:29;;;;;;;12.57;4.38;;;;;;;-0.01;42.04;100666.28;4977375;28;20041;-48
2024/02/14 08:12:57;;;;;;;11.15;3.80;;;;;;;0.04;41.59;100669.81;4997423;28;20662;-50
2024/02/14 08:15:23;;;;;;;8.65;3.85;;;;;;;-0.02;41.53;100678.19;4985442;28;20097;-51
2024/02/14 08:17:49;;;;;;;10.35;3.78;;;;;;;-0.22;41.43;100675.97;4968572;28;20506;-49
2024/02/14 08:20:15;;;;;;;10.82;3.60;;;;;;;-0.46;41.91;100668.53;5004699;28;20537;-49
2024/02/14 08:22:54;;;;;;;;;;;;;;;-0.78;41.75;100675.34;4966694;28;20046;-48
2024/02/14 08:25:20;;;;;;;7.97;3.22;;;;;;;-1.05;42.17;100667.81;4994799;28;20004;-49
2024/02/14 08:27:47;;;;;;;10.85;3.60;;;;;;;-1.10;42.54;100668.53;4996522;28;20060;-52
2024/02/14 08:30:13;;;;;;;10.48;3.83;;;;;;;-1.04;42.60;100672.09;4993401;28;21076;-53
2024/02/14 08:32:39;;;;;;;10.23;4.03;;;;;;;-1.00;42.65;100673.94;4994719;28;20510;-52
2024/02/14 08:35:07;;;;;;;10.02;4.10;;;;;;;-0.91;42.80;100680.97;4993723;28;20042;-51
2024/02/14 08:37:33;;;;;;;9.18;3.60;;;;;;;-0.74;42.75;100674.63;4995339;28;20256;-48
2024/02/14 08:39:59;;;;;;;13.13;3.30;;;;;;;-0.60;42.37;100678.41;4975909;28;20176;-54
2024/02/14 08:42:25;;;;;;;10.52;3.85;;;;;;;-0.75;42.47;100649.91;4991726;28;20545;-48
2024/02/14 08:44:50;;;;;;;8.77;3.78;;;;;;;-0.51;42.24;100677.78;4996094;28;20544;-51
2024/02/14 08:47:17;;;;;;;9.32;3.35;;;;;;;-0.55;42.16;100679.38;4991934;28;20042;-48
2024/02/14 08:49:43;;;;;;;9.95;4.03;;;;;;;-0.39;42.21;100682.34;5005609;28;20129;-53
2024/02/14 08:52:08;;;;;;;8.90;3.60;;;;;;;-0.24;42.03;100685.28;4999665;28;20486;-49
2024/02/14 08:54:35;;;;;;;9.07;3.65;;;;;;;-0.61;42.37;100628.16;4999489;28;20050;-49
2024/02/14 08:57:01;;;;;;;9.05;3.90;;;;;;;-0.47;42.13;100629.34;4998849;28;20042;-51
2024/02/14 08:59:27;;;;;;;11.15;4.35;;;;;;;-0.23;41.94;100648.69;4997695;28;20042;-52
2024/02/14 09:01:53;;;;;;;9.07;3.70;;;;;;;0.07;41.96;100689.44;4981026;28;20691;-51
2024/02/14 09:04:19;;;;;;;10.60;3.72;;;;;;;0.31;41.29;100684.91;5002375;28;20049;-50
2024/02/14 09:06:45;;;;;;;9.35;3.95;;;;;;;0.15;41.57;100655.56;5002034;28;20053;-53
2024/02/14 09:09:11;;;;;;;10.25;4.13;;;;;;;0.33;41.43;100689.22;4999578;28;20041;-48
2024/02/14 09:11:37;;;;;;;6.88;3.85;;;;;;;0.43;41.50;100692.84;4997908;28;20100;-53
2024/02/14 09:14:06;;;;;;;8.48;4.22;;;;;;;0.36;41.25;100662.88;4998093;28;20029;-50
2024/02/14 09:16:33;;;;;;;7.70;3.75;;;;;;;0.57;41.28;100690.63;4994949;28;20054;-49
2024/02/14 09:19:01;;;;;;;8.48;3.83;;;;;;;0.38;41.06;100653.53;4997826;28;20038;-51
2024/02/14 09:21:28;;;;;;;6.75;3.63;;;;;;;0.36;41.48;100676.53;4998516;28;20105;-54
2024/02/14 09:23:54;;;;;;;9.50;4.07;;;;;;;0.23;41.49;100694.09;4978012;28;20138;-52
2024/02/14 09:26:20;;;;;;;8.52;3.50;;;;;;;0.11;41.70;100693.78;4997549;28;20042;-51
2024/02/14 09:28:46;;;;;;;10.38;4.70;;;;;;;-0.10;41.69;100659.22;4998358;28;20044;-53
2024/02/14 09:31:12;;;;;;;12.75;5.80;;;;;;;0.16;42.08;100695.63;5004582;28;20041;-53
2024/02/14 09:33:39;;;;;;;9.07;3.90;;;;;;;-0.16;41.92;100666.75;5002317;28;20092;-55
2024/02/14 09:36:06;;;;;;;10.98;4.25;;;;;;;-0.01;41.66;100696.94;5005374;28;20380;-51
2024/02/14 09:38:32;;;;;;;8.50;3.63;;;;;;;-0.11;42.05;100695.88;5002058;28;20070;-51
2024/02/14 09:41:11;;;;;;;8.27;3.65;;;;;;;-0.10;41.87;100695.00;5001523;28;20538;-54
2024/02/14 09:43:42;;;;;;;9.50;3.92;;;;;;;-0.15;42.12;100690.59;4982610;28;20053;-53
2024/02/14 09:46:08;;;;;;;10.00;3.80;;;;;;;-0.14;42.37;100694.91;4996641;28;20064;-55
2024/02/14 09:48:37;;;;;;;7.75;3.67;;;;;;;-0.14;42.37;100697.47;5000465;28;20053;-54
2024/02/14 09:51:04;;;;;;;7.00;3.85;;;;;;;-0.17;42.29;100694.84;4979594;28;20045;-55
2024/02/14 09:53:32;;;;;;;7.82;3.75;;;;;;;-0.07;42.30;100702.78;4959302;28;20137;-49
2024/02/14 09:55:59;;;;;;;11.10;4.28;;;;;;;-0.11;41.99;100703.53;4996950;28;20174;-50
2024/02/14 09:58:27;;;;;;;13.38;4.32;;;;;;;-0.21;42.28;100703.25;4981378;28;20045;-53
2024/02/14 10:00:53;;;;;;;12.68;4.20;;;;;;;-0.30;42.28;100701.31;4995628;28;20038;-54
2024/02/14 10:03:19;;;;;;;8.77;4.18;;;;;;;-0.27;42.27;100703.97;4986620;28;20049;-51
2024/02/14 10:05:45;;;;;;;11.20;3.78;;;;;;;-0.28;42.53;100703.91;4965616;28;20050;-49
2024/02/14 10:08:11;;;;;;;11.30;3.50;;;;;;;-0.74;42.34;100653.34;5002389;28;20499;-51
2024/02/14 10:10:38;;;;;;;6.13;3.72;;;;;;;-0.67;42.73;100691.81;4978614;28;20076;-53
2024/02/14 10:13:05;;;;;;;8.25;3.58;;;;;;;-0.64;42.46;100698.72;4989384;28;20399;-54
2024/02/14 10:15:32;;;;;;;8.82;3.42;;;;;;;-0.70;42.51;100701.09;5000474;28;20136;-55
2024/02/14 10:17:59;;;;;;;7.95;3.67;;;;;;;-0.78;42.90;100700.00;4978864;28;20334;-51
2024/02/14 10:20:26;;;;;;;9.73;3.63;;;;;;;-0.81;43.33;100693.16;4979901;28;20084;-48
2024/02/14 10:23:03;;;;;;;9.43;4.32;;;;;;;-0.80;43.39;100694.03;4976488;28;20042;-50
2024/02/14 10:25:31;;;;;;;7.60;3.45;;;;;;;-0.88;43.68;100697.22;4971255;28;20042;-55
2024/02/14 10:27:57;;;;;;;9.77;3.38;;;;;;;-0.83;43.61;100694.78;4977369;28;20349;-55
2024/02/14 10:30:22;;;;;;;8.77;3.50;;;;;;;-1.10;43.71;100694.88;4998993;28;20049;-53
2024/02/14 10:32:49;;;;;;;7.00;3.28;;;;;;;-1.08;43.73;100698.34;4983138;28;20042;-50
2024/02/14 10:35:15;;;;;;;13.55;4.90;;;;;;;-1.05;43.79;100700.13;5005824;28;20053;-56
2024/02/14 10:37:42;;;;;;;8.25;3.35;;;;;;;-0.98;43.38;100702.03;5005463;28;20038;-48
2024/02/14 10:40:11;;;;;;;6.30;3.28;;;;;;;-1.07;43.68;100700.09;5005168;28;20041;-52
2024/02/14 10:42:37;;;;;;;;;;;;;;;-0.94;43.68;100702.16;5008092;28;20042;-54
2024/02/14 10:45:03;;;;;;;11.40;3.95;;;;;;;-0.91;43.75;100698.81;5001249;28;19924;-52
2024/02/14 10:47:39;;;;;;;8.40;3.38;;;;;;;-0.87;43.63;100698.09;4980654;28;20049;-49
2024/02/14 10:50:07;;;;;;;9.27;4.15;;;;;;;-0.77;43.33;100702.63;4998569;28;20139;-50
2024/02/14 10:52:35;;;;;;;7.40;3.83;;;;;;;-1.01;43.59;100676.44;5007844;28;20046;-53
2024/02/14 10:55:03;;;;;;;8.73;4.05;;;;;;;-0.71;43.81;100707.03;4978952;28;20054;-42
2024/02/14 10:57:31;;;;;;;9.27;3.45;;;;;;;-0.78;43.32;100700.00;4994915;28;20128;-43
2024/02/14 11:00:02;;;;;;;9.52;3.70;;;;;;;-0.65;43.42;100702.97;4963034;28;20046;-41
2024/02/14 11:02:32;;;;;;;7.75;4.05;;;;;;;-0.58;43.46;100701.44;4998924;28;20034;-43
2024/02/14 11:05:00;;;;;;;9.85;4.22;;;;;;;-0.74;43.05;100692.50;4998064;28;20099;-52
2024/02/14 11:07:30;;;;;;;10.27;3.55;;;;;;;-0.64;43.98;100703.81;4994831;28;20038;-53
2024/02/14 11:10:08;;;;;;;;;;;;;;;-0.56;43.43;100704.88;5004716;28;20038;-52
2024/02/14 11:12:44;;;;;;;13.65;3.40;;;;;;;-0.48;43.72;100714.50;5001634;28;19917;-48
2024/02/14 11:15:19;;;;;;;6.10;3.13;;;;;;;-0.41;43.90;100702.72;4975162;28;20464;-51
2024/02/14 11:17:47;;;;;;;7.65;3.65;;;;;;;-0.30;43.97;100711.53;4970590;28;20077;-49
2024/02/14 11:20:17;;;;;;;9.05;3.72;;;;;;;-0.29;43.72;100700.50;5006087;28;20078;-48
2024/02/14 11:23:03;;;;;;;8.55;3.30;;;;;;;-0.46;43.48;100702.63;5005676;28;20092;-49
2024/02/14 11:25:31;;;;;;;9.65;4.18;;;;;;;-0.79;43.92;100676.19;4973653;28;20052;-48
2024/02/14 11:27:58;;;;;;;8.45;3.85;;;;;;;-0.63;43.86;100700.47;4969493;28;20120;-46